sensor_id;sensor_type;location;lat;lon;timestamp;P1;durP1;ratioP1;P2;durP2;ratioP2
56171;SDS011;42052;41.634;-0.946;2023-03-01T00:02:34;1.25;;;0.60;;
56171;SDS011;42052;41.634;-0.946;2023-03-01T00:05:20;1.75;;;0.70;;
56171;SDS011;42052;41.634;-0.946;2023-03-01T00:08:07;1.10;;;0.60;;
56171;SDS011;42052;41.634;-0.946;2023-03-01T00:14:02;1.10;;;0.60;;
56171;SDS011;42052;41.634;-0.946;2023-03-01T00:16:54;0.80;;;0.50;;
56171;SDS011;42052;41.634;-0.946;2023-03-01T00:19:41;1.17;;;0.57;;
56171;SDS011;42052;41.634;-0.946;2023-03-01T00:22:27;1.02;;;0.60;;
56171;SDS011;42052;41.634;-0.946;2023-03-01T00:25:16;0.82;;;0.57;;
56171;SDS011;42052;41.634;-0.946;2023-03-01T00:28:02;2.55;;;0.52;;
56171;SDS011;42052;41.634;-0.946;2023-03-01T00:30:48;2.17;;;0.77;;
56171;SDS011;42052;41.634;-0.946;2023-03-01T00:33:34;2.70;;;0.80;;
56171;SDS011;42052;41.634;-0.946;2023-03-01T00:36:20;0.93;;;0.50;;
56171;SDS011;42052;41.634;-0.946;2023-03-01T00:39:09;1.58;;;0.52;;
56171;SDS011;42052;41.634;-0.946;2023-03-01T00:41:59;1.60;;;0.80;;
56171;SDS011;42052;41.634;-0.946;2023-03-01T00:44:45;0.85;;;0.63;;
56171;SDS011;42052;41.634;-0.946;2023-03-01T00:47:31;1.13;;;0.80;;
56171;SDS011;42052;41.634;-0.946;2023-03-01T00:50:17;1.40;;;0.60;;
56171;SDS011;42052;41.634;-0.946;2023-03-01T00:53:04;1.17;;;0.50;;
56171;SDS011;42052;41.634;-0.946;2023-03-01T00:55:50;2.08;;;0.60;;
56171;SDS011;42052;41.634;-0.946;2023-03-01T00:58:36;0.80;;;0.50;;
56171;SDS011;42052;41.634;-0.946;2023-03-01T01:01:24;1.20;;;0.60;;
56171;SDS011;42052;41.634;-0.946;2023-03-01T01:04:14;1.35;;;0.50;;
56171;SDS011;42052;41.634;-0.946;2023-03-01T01:07:00;0.98;;;0.50;;
56171;SDS011;42052;41.634;-0.946;2023-03-01T01:09:46;0.90;;;0.60;;
56171;SDS011;42052;41.634;-0.946;2023-03-01T01:12:32;1.63;;;0.70;;
56171;SDS011;42052;41.634;-0.946;2023-03-01T01:15:19;0.93;;;0.60;;
56171;SDS011;42052;41.634;-0.946;2023-03-01T01:18:05;1.48;;;0.60;;
56171;SDS011;42052;41.634;-0.946;2023-03-01T01:20:51;1.48;;;0.70;;
56171;SDS011;42052;41.634;-0.946;2023-03-01T01:23:37;1.85;;;0.68;;
56171;SDS011;42052;41.634;-0.946;2023-03-01T01:26:28;1.30;;;0.70;;
56171;SDS011;42052;41.634;-0.946;2023-03-01T01:29:16;4.32;;;0.70;;
56171;SDS011;42052;41.634;-0.946;2023-03-01T01:32:02;1.52;;;0.70;;
56171;SDS011;42052;41.634;-0.946;2023-03-01T01:34:49;1.65;;;0.63;;
56171;SDS011;42052;41.634;-0.946;2023-03-01T01:37:35;1.80;;;0.70;;
56171;SDS011;42052;41.634;-0.946;2023-03-01T01:40:21;1.13;;;0.50;;
56171;SDS011;42052;41.634;-0.946;2023-03-01T01:43:10;1.15;;;0.50;;
56171;SDS011;42052;41.634;-0.946;2023-03-01T01:55:14;0.90;;;0.55;;
56171;SDS011;42052;41.634;-0.946;2023-03-01T01:58:06;2.53;;;0.70;;
56171;SDS011;42052;41.634;-0.946;2023-03-01T02:00:55;1.15;;;0.55;;
56171;SDS011;42052;41.634;-0.946;2023-03-01T02:03:42;1.10;;;0.50;;
56171;SDS011;42052;41.634;-0.946;2023-03-01T02:06:38;1.10;;;0.52;;
56171;SDS011;42052;41.634;-0.946;2023-03-01T02:09:29;0.90;;;0.43;;
56171;SDS011;42052;41.634;-0.946;2023-03-01T02:12:17;1.05;;;0.50;;
56171;SDS011;42052;41.634;-0.946;2023-03-01T02:15:05;1.33;;;0.75;;
56171;SDS011;42052;41.634;-0.946;2023-03-01T02:17:52;1.23;;;0.57;;
56171;SDS011;42052;41.634;-0.946;2023-03-01T02:24:17;1.27;;;0.57;;
56171;SDS011;42052;41.634;-0.946;2023-03-01T02:27:08;0.75;;;0.50;;
56171;SDS011;42052;41.634;-0.946;2023-03-01T02:29:55;1.05;;;0.52;;
56171;SDS011;42052;41.634;-0.946;2023-03-01T02:32:41;1.40;;;0.70;;
56171;SDS011;42052;41.634;-0.946;2023-03-01T02:35:32;1.30;;;0.68;;
56171;SDS011;42052;41.634;-0.946;2023-03-01T02:38:24;1.80;;;0.70;;
56171;SDS011;42052;41.634;-0.946;2023-03-01T02:41:14;0.40;;;0.40;;
56171;SDS011;42052;41.634;-0.946;2023-03-01T02:44:03;1.97;;;0.60;;
56171;SDS011;42052;41.634;-0.946;2023-03-01T02:46:50;0.63;;;0.50;;
56171;SDS011;42052;41.634;-0.946;2023-03-01T02:49:39;8.90;;;0.60;;
56171;SDS011;42052;41.634;-0.946;2023-03-01T02:55:32;1.33;;;0.50;;
56171;SDS011;42052;41.634;-0.946;2023-03-01T02:58:18;1.33;;;0.60;;
56171;SDS011;42052;41.634;-0.946;2023-03-01T03:01:04;0.95;;;0.50;;
56171;SDS011;42052;41.634;-0.946;2023-03-01T03:03:50;1.63;;;0.57;;
56171;SDS011;42052;41.634;-0.946;2023-03-01T03:06:37;0.85;;;0.52;;
56171;SDS011;42052;41.634;-0.946;2023-03-01T03:09:23;0.90;;;0.43;;
56171;SDS011;42052;41.634;-0.946;2023-03-01T03:12:09;0.70;;;0.50;;
56171;SDS011;42052;41.634;-0.946;2023-03-01T03:14:56;1.15;;;0.60;;
56171;SDS011;42052;41.634;-0.946;2023-03-01T03:17:42;0.90;;;0.60;;
56171;SDS011;42052;41.634;-0.946;2023-03-01T03:20:28;1.50;;;0.47;;
56171;SDS011;42052;41.634;-0.946;2023-03-01T03:23:15;0.88;;;0.47;;
56171;SDS011;42052;41.634;-0.946;2023-03-01T03:26:01;0.47;;;0.40;;
56171;SDS011;42052;41.634;-0.946;2023-03-01T03:28:49;0.90;;;0.50;;
56171;SDS011;42052;41.634;-0.946;2023-03-01T03:31:35;1.20;;;0.50;;
56171;SDS011;42052;41.634;-0.946;2023-03-01T03:34:22;0.80;;;0.50;;
56171;SDS011;42052;41.634;-0.946;2023-03-01T03:37:08;1.15;;;0.50;;
56171;SDS011;42052;41.634;-0.946;2023-03-01T03:40:14;0.73;;;0.40;;
56171;SDS011;42052;41.634;-0.946;2023-03-01T03:43:01;1.02;;;0.57;;
56171;SDS011;42052;41.634;-0.946;2023-03-01T03:45:49;0.90;;;0.55;;
56171;SDS011;42052;41.634;-0.946;2023-03-01T03:48:38;0.55;;;0.32;;
56171;SDS011;42052;41.634;-0.946;2023-03-01T03:51:26;1.58;;;0.73;;
56171;SDS011;42052;41.634;-0.946;2023-03-01T03:54:12;0.90;;;0.40;;
56171;SDS011;42052;41.634;-0.946;2023-03-01T03:56:58;2.75;;;0.60;;
56171;SDS011;42052;41.634;-0.946;2023-03-01T03:59:44;0.93;;;0.55;;
56171;SDS011;42052;41.634;-0.946;2023-03-01T04:02:30;0.50;;;0.45;;
56171;SDS011;42052;41.634;-0.946;2023-03-01T04:05:17;0.70;;;0.47;;
56171;SDS011;42052;41.634;-0.946;2023-03-01T04:08:04;2.05;;;0.50;;
56171;SDS011;42052;41.634;-0.946;2023-03-01T04:10:56;0.55;;;0.45;;
56171;SDS011;42052;41.634;-0.946;2023-03-01T04:14:07;0.93;;;0.50;;
56171;SDS011;42052;41.634;-0.946;2023-03-01T04:16:53;0.45;;;0.40;;
56171;SDS011;42052;41.634;-0.946;2023-03-01T04:19:39;1.05;;;0.55;;
56171;SDS011;42052;41.634;-0.946;2023-03-01T04:22:29;1.15;;;0.40;;
56171;SDS011;42052;41.634;-0.946;2023-03-01T04:25:17;0.63;;;0.40;;
56171;SDS011;42052;41.634;-0.946;2023-03-01T04:28:04;0.52;;;0.50;;
56171;SDS011;42052;41.634;-0.946;2023-03-01T04:30:51;0.80;;;0.50;;
56171;SDS011;42052;41.634;-0.946;2023-03-01T04:33:39;0.85;;;0.40;;
56171;SDS011;42052;41.634;-0.946;2023-03-01T04:36:27;1.20;;;0.45;;
56171;SDS011;42052;41.634;-0.946;2023-03-01T04:39:14;1.08;;;0.60;;
56171;SDS011;42052;41.634;-0.946;2023-03-01T04:42:00;0.90;;;0.63;;
56171;SDS011;42052;41.634;-0.946;2023-03-01T04:44:46;1.52;;;0.63;;
56171;SDS011;42052;41.634;-0.946;2023-03-01T04:47:32;0.57;;;0.47;;
56171;SDS011;42052;41.634;-0.946;2023-03-01T04:50:19;0.60;;;0.60;;
56171;SDS011;42052;41.634;-0.946;2023-03-01T04:53:09;0.68;;;0.50;;
56171;SDS011;42052;41.634;-0.946;2023-03-01T04:55:55;2.20;;;0.50;;
56171;SDS011;42052;41.634;-0.946;2023-03-01T04:58:42;0.55;;;0.52;;
56171;SDS011;42052;41.634;-0.946;2023-03-01T05:01:29;2.00;;;0.57;;
56171;SDS011;42052;41.634;-0.946;2023-03-01T05:04:15;0.60;;;0.40;;
56171;SDS011;42052;41.634;-0.946;2023-03-01T05:07:01;0.60;;;0.50;;
56171;SDS011;42052;41.634;-0.946;2023-03-01T05:09:47;0.50;;;0.40;;
56171;SDS011;42052;41.634;-0.946;2023-03-01T05:12:33;1.02;;;0.60;;
56171;SDS011;42052;41.634;-0.946;2023-03-01T05:15:20;0.93;;;0.50;;
56171;SDS011;42052;41.634;-0.946;2023-03-01T05:18:07;0.68;;;0.50;;
56171;SDS011;42052;41.634;-0.946;2023-03-01T05:21:02;1.00;;;0.50;;
56171;SDS011;42052;41.634;-0.946;2023-03-01T05:23:50;0.63;;;0.50;;
56171;SDS011;42052;41.634;-0.946;2023-03-01T05:26:37;2.85;;;0.50;;
56171;SDS011;42052;41.634;-0.946;2023-03-01T05:29:26;1.83;;;0.60;;
56171;SDS011;42052;41.634;-0.946;2023-03-01T05:32:13;0.40;;;0.40;;
56171;SDS011;42052;41.634;-0.946;2023-03-01T05:35:00;0.82;;;0.50;;
56171;SDS011;42052;41.634;-0.946;2023-03-01T05:37:48;1.00;;;0.60;;
56171;SDS011;42052;41.634;-0.946;2023-03-01T05:40:34;1.25;;;0.60;;
56171;SDS011;42052;41.634;-0.946;2023-03-01T05:43:20;2.17;;;0.60;;
56171;SDS011;42052;41.634;-0.946;2023-03-01T05:46:06;1.10;;;0.57;;
56171;SDS011;42052;41.634;-0.946;2023-03-01T05:48:57;1.40;;;0.70;;
56171;SDS011;42052;41.634;-0.946;2023-03-01T05:51:47;0.60;;;0.50;;
56171;SDS011;42052;41.634;-0.946;2023-03-01T05:54:34;1.35;;;0.50;;
56171;SDS011;42052;41.634;-0.946;2023-03-01T05:57:20;2.35;;;0.60;;
56171;SDS011;42052;41.634;-0.946;2023-03-01T06:00:06;1.48;;;0.52;;
56171;SDS011;42052;41.634;-0.946;2023-03-01T06:02:54;1.52;;;0.70;;
56171;SDS011;42052;41.634;-0.946;2023-03-01T06:05:41;1.38;;;0.50;;
56171;SDS011;42052;41.634;-0.946;2023-03-01T06:08:27;1.00;;;0.60;;
56171;SDS011;42052;41.634;-0.946;2023-03-01T06:11:13;2.30;;;0.68;;
56171;SDS011;42052;41.634;-0.946;2023-03-01T06:14:00;3.92;;;0.60;;
56171;SDS011;42052;41.634;-0.946;2023-03-01T06:16:46;3.40;;;0.90;;
56171;SDS011;42052;41.634;-0.946;2023-03-01T06:19:32;4.78;;;0.70;;
56171;SDS011;42052;41.634;-0.946;2023-03-01T06:22:18;2.15;;;0.60;;
56171;SDS011;42052;41.634;-0.946;2023-03-01T06:25:04;1.08;;;0.60;;
56171;SDS011;42052;41.634;-0.946;2023-03-01T06:27:51;0.93;;;0.70;;
56171;SDS011;42052;41.634;-0.946;2023-03-01T06:30:40;2.70;;;0.80;;
56171;SDS011;42052;41.634;-0.946;2023-03-01T06:33:26;3.05;;;0.80;;
56171;SDS011;42052;41.634;-0.946;2023-03-01T06:36:12;1.67;;;0.80;;
56171;SDS011;42052;41.634;-0.946;2023-03-01T06:38:58;1.52;;;0.60;;
56171;SDS011;42052;41.634;-0.946;2023-03-01T06:41:44;1.63;;;0.52;;
56171;SDS011;42052;41.634;-0.946;2023-03-01T06:44:30;0.70;;;0.63;;
56171;SDS011;42052;41.634;-0.946;2023-03-01T06:47:16;1.83;;;0.57;;
56171;SDS011;42052;41.634;-0.946;2023-03-01T06:50:03;1.33;;;0.60;;
56171;SDS011;42052;41.634;-0.946;2023-03-01T06:52:52;1.48;;;0.60;;
56171;SDS011;42052;41.634;-0.946;2023-03-01T06:55:41;0.90;;;0.60;;
56171;SDS011;42052;41.634;-0.946;2023-03-01T06:58:27;1.92;;;0.60;;
56171;SDS011;42052;41.634;-0.946;2023-03-01T07:01:13;1.83;;;0.60;;
56171;SDS011;42052;41.634;-0.946;2023-03-01T07:03:59;1.45;;;0.60;;
56171;SDS011;42052;41.634;-0.946;2023-03-01T07:06:45;1.63;;;0.70;;
56171;SDS011;42052;41.634;-0.946;2023-03-01T07:09:37;0.82;;;0.60;;
56171;SDS011;42052;41.634;-0.946;2023-03-01T07:12:23;1.00;;;0.60;;
56171;SDS011;42052;41.634;-0.946;2023-03-01T07:15:09;0.82;;;0.55;;
56171;SDS011;42052;41.634;-0.946;2023-03-01T07:17:56;2.08;;;0.70;;
56171;SDS011;42052;41.634;-0.946;2023-03-01T07:20:42;1.85;;;0.70;;
56171;SDS011;42052;41.634;-0.946;2023-03-01T07:23:28;2.50;;;0.60;;
56171;SDS011;42052;41.634;-0.946;2023-03-01T07:26:15;2.38;;;0.60;;
56171;SDS011;42052;41.634;-0.946;2023-03-01T07:29:02;3.25;;;0.50;;
56171;SDS011;42052;41.634;-0.946;2023-03-01T07:31:49;2.00;;;0.90;;
56171;SDS011;42052;41.634;-0.946;2023-03-01T07:34:36;0.90;;;0.70;;
56171;SDS011;42052;41.634;-0.946;2023-03-01T07:37:22;0.80;;;0.60;;
56171;SDS011;42052;41.634;-0.946;2023-03-01T07:40:08;1.67;;;0.70;;
56171;SDS011;42052;41.634;-0.946;2023-03-01T07:42:58;1.33;;;0.60;;
56171;SDS011;42052;41.634;-0.946;2023-03-01T07:45:44;1.70;;;0.60;;
56171;SDS011;42052;41.634;-0.946;2023-03-01T07:48:30;1.48;;;0.57;;
56171;SDS011;42052;41.634;-0.946;2023-03-01T07:51:18;1.20;;;0.70;;
56171;SDS011;42052;41.634;-0.946;2023-03-01T07:54:04;1.50;;;0.70;;
56171;SDS011;42052;41.634;-0.946;2023-03-01T07:56:50;1.15;;;0.75;;
56171;SDS011;42052;41.634;-0.946;2023-03-01T07:59:37;2.00;;;0.70;;
56171;SDS011;42052;41.634;-0.946;2023-03-01T08:02:23;1.10;;;0.70;;
56171;SDS011;42052;41.634;-0.946;2023-03-01T08:05:09;1.33;;;0.63;;
56171;SDS011;42052;41.634;-0.946;2023-03-01T08:07:55;1.52;;;0.70;;
56171;SDS011;42052;41.634;-0.946;2023-03-01T08:10:41;1.25;;;0.73;;
56171;SDS011;42052;41.634;-0.946;2023-03-01T08:13:28;1.60;;;0.70;;
56171;SDS011;42052;41.634;-0.946;2023-03-01T08:16:14;1.80;;;0.77;;
56171;SDS011;42052;41.634;-0.946;2023-03-01T08:19:04;1.27;;;0.90;;
56171;SDS011;42052;41.634;-0.946;2023-03-01T08:21:51;1.40;;;0.80;;
56171;SDS011;42052;41.634;-0.946;2023-03-01T08:24:37;3.05;;;0.75;;
56171;SDS011;42052;41.634;-0.946;2023-03-01T08:27:23;1.27;;;0.90;;
56171;SDS011;42052;41.634;-0.946;2023-03-01T08:30:09;1.33;;;0.85;;
56171;SDS011;42052;41.634;-0.946;2023-03-01T08:32:56;2.05;;;0.88;;
56171;SDS011;42052;41.634;-0.946;2023-03-01T08:35:42;1.63;;;0.90;;
56171;SDS011;42052;41.634;-0.946;2023-03-01T08:38:28;1.08;;;0.70;;
56171;SDS011;42052;41.634;-0.946;2023-03-01T08:41:15;1.30;;;0.80;;
56171;SDS011;42052;41.634;-0.946;2023-03-01T08:44:01;1.50;;;0.90;;
56171;SDS011;42052;41.634;-0.946;2023-03-01T08:46:47;1.13;;;0.70;;
56171;SDS011;42052;41.634;-0.946;2023-03-01T08:49:35;1.85;;;0.80;;
56171;SDS011;42052;41.634;-0.946;2023-03-01T08:52:21;1.98;;;0.63;;
56171;SDS011;42052;41.634;-0.946;2023-03-01T08:55:07;1.65;;;0.77;;
56171;SDS011;42052;41.634;-0.946;2023-03-01T08:57:55;3.17;;;0.90;;
56171;SDS011;42052;41.634;-0.946;2023-03-01T09:00:43;0.80;;;0.70;;
56171;SDS011;42052;41.634;-0.946;2023-03-01T09:03:29;1.17;;;0.73;;
56171;SDS011;42052;41.634;-0.946;2023-03-01T09:06:16;1.83;;;0.95;;
56171;SDS011;42052;41.634;-0.946;2023-03-01T09:09:03;1.88;;;0.82;;
56171;SDS011;42052;41.634;-0.946;2023-03-01T09:11:50;1.33;;;0.88;;
56171;SDS011;42052;41.634;-0.946;2023-03-01T09:14:36;1.45;;;1.00;;
56171;SDS011;42052;41.634;-0.946;2023-03-01T09:17:24;1.73;;;1.00;;
56171;SDS011;42052;41.634;-0.946;2023-03-01T09:20:10;1.67;;;1.00;;
56171;SDS011;42052;41.634;-0.946;2023-03-01T09:22:56;1.58;;;0.82;;
56171;SDS011;42052;41.634;-0.946;2023-03-01T09:25:43;1.02;;;0.80;;
56171;SDS011;42052;41.634;-0.946;2023-03-01T09:28:29;2.50;;;1.00;;
56171;SDS011;42052;41.634;-0.946;2023-03-01T09:31:15;1.08;;;0.80;;
56171;SDS011;42052;41.634;-0.946;2023-03-01T09:34:02;1.40;;;0.93;;
56171;SDS011;42052;41.634;-0.946;2023-03-01T09:36:49;1.67;;;0.90;;
56171;SDS011;42052;41.634;-0.946;2023-03-01T09:39:35;1.70;;;0.80;;
56171;SDS011;42052;41.634;-0.946;2023-03-01T09:42:21;0.95;;;0.70;;
56171;SDS011;42052;41.634;-0.946;2023-03-01T09:45:11;1.08;;;0.80;;
56171;SDS011;42052;41.634;-0.946;2023-03-01T09:48:09;1.50;;;0.90;;
56171;SDS011;42052;41.634;-0.946;2023-03-01T09:51:02;1.27;;;0.80;;
56171;SDS011;42052;41.634;-0.946;2023-03-01T09:53:54;2.57;;;0.80;;
56171;SDS011;42052;41.634;-0.946;2023-03-01T10:05:53;1.50;;;0.90;;
56171;SDS011;42052;41.634;-0.946;2023-03-01T10:08:50;3.38;;;1.00;;
56171;SDS011;42052;41.634;-0.946;2023-03-01T10:11:43;1.35;;;0.90;;
56171;SDS011;42052;41.634;-0.946;2023-03-01T10:17:47;3.53;;;0.98;;
56171;SDS011;42052;41.634;-0.946;2023-03-01T10:23:44;0.95;;;0.88;;
56171;SDS011;42052;41.634;-0.946;2023-03-01T10:29:30;1.05;;;0.80;;
56171;SDS011;42052;41.634;-0.946;2023-03-01T10:32:23;3.13;;;0.80;;
56171;SDS011;42052;41.634;-0.946;2023-03-01T10:35:16;1.23;;;0.85;;
56171;SDS011;42052;41.634;-0.946;2023-03-01T10:38:08;1.70;;;1.00;;
56171;SDS011;42052;41.634;-0.946;2023-03-01T10:40:57;1.70;;;1.00;;
56171;SDS011;42052;41.634;-0.946;2023-03-01T10:43:50;2.75;;;0.90;;
56171;SDS011;42052;41.634;-0.946;2023-03-01T10:46:38;1.87;;;0.80;;
56171;SDS011;42052;41.634;-0.946;2023-03-01T10:49:24;2.70;;;0.88;;
56171;SDS011;42052;41.634;-0.946;2023-03-01T10:52:17;2.15;;;1.00;;
56171;SDS011;42052;41.634;-0.946;2023-03-01T11:06:59;2.97;;;1.10;;
56171;SDS011;42052;41.634;-0.946;2023-03-01T11:09:46;1.80;;;0.90;;
56171;SDS011;42052;41.634;-0.946;2023-03-01T11:12:32;1.50;;;1.10;;
56171;SDS011;42052;41.634;-0.946;2023-03-01T11:15:21;1.95;;;1.10;;
56171;SDS011;42052;41.634;-0.946;2023-03-01T11:18:20;1.83;;;1.05;;
56171;SDS011;42052;41.634;-0.946;2023-03-01T11:21:07;2.75;;;1.10;;
56171;SDS011;42052;41.634;-0.946;2023-03-01T11:23:55;1.58;;;0.90;;
56171;SDS011;42052;41.634;-0.946;2023-03-01T11:26:52;1.35;;;0.90;;
56171;SDS011;42052;41.634;-0.946;2023-03-01T11:29:41;3.40;;;1.00;;
56171;SDS011;42052;41.634;-0.946;2023-03-01T11:32:53;1.97;;;1.00;;
56171;SDS011;42052;41.634;-0.946;2023-03-01T11:35:55;1.17;;;0.90;;
56171;SDS011;42052;41.634;-0.946;2023-03-01T11:38:46;3.17;;;1.05;;
56171;SDS011;42052;41.634;-0.946;2023-03-01T11:41:33;1.38;;;1.00;;
56171;SDS011;42052;41.634;-0.946;2023-03-01T11:44:25;2.33;;;1.00;;
56171;SDS011;42052;41.634;-0.946;2023-03-01T11:56:53;1.63;;;1.00;;
56171;SDS011;42052;41.634;-0.946;2023-03-01T12:06:32;2.78;;;1.10;;
56171;SDS011;42052;41.634;-0.946;2023-03-01T12:18:51;18.13;;;2.00;;
56171;SDS011;42052;41.634;-0.946;2023-03-01T12:31:01;10.30;;;1.65;;
56171;SDS011;42052;41.634;-0.946;2023-03-01T12:43:58;14.25;;;2.15;;
56171;SDS011;42052;41.634;-0.946;2023-03-01T12:49:48;7.53;;;1.70;;
56171;SDS011;42052;41.634;-0.946;2023-03-01T12:55:29;7.97;;;1.60;;
56171;SDS011;42052;41.634;-0.946;2023-03-01T13:01:35;6.30;;;1.60;;
56171;SDS011;42052;41.634;-0.946;2023-03-01T13:13:26;4.15;;;1.30;;
56171;SDS011;42052;41.634;-0.946;2023-03-01T13:19:08;5.78;;;1.35;;
56171;SDS011;42052;41.634;-0.946;2023-03-01T13:25:39;4.47;;;1.50;;
56171;SDS011;42052;41.634;-0.946;2023-03-01T13:34:06;2.90;;;1.23;;
56171;SDS011;42052;41.634;-0.946;2023-03-01T13:37:33;6.47;;;1.20;;
56171;SDS011;42052;41.634;-0.946;2023-03-01T13:43:28;4.30;;;1.30;;
56171;SDS011;42052;41.634;-0.946;2023-03-01T13:46:25;5.32;;;1.25;;
56171;SDS011;42052;41.634;-0.946;2023-03-01T13:49:18;3.58;;;1.25;;
56171;SDS011;42052;41.634;-0.946;2023-03-01T13:52:20;3.40;;;1.15;;
56171;SDS011;42052;41.634;-0.946;2023-03-01T13:58:49;3.15;;;1.10;;
56171;SDS011;42052;41.634;-0.946;2023-03-01T14:01:44;3.20;;;1.23;;
56171;SDS011;42052;41.634;-0.946;2023-03-01T14:04:46;4.00;;;1.25;;
56171;SDS011;42052;41.634;-0.946;2023-03-01T14:07:42;3.80;;;1.20;;
56171;SDS011;42052;41.634;-0.946;2023-03-01T14:10:31;4.05;;;1.35;;
56171;SDS011;42052;41.634;-0.946;2023-03-01T14:13:39;5.47;;;1.20;;
56171;SDS011;42052;41.634;-0.946;2023-03-01T14:19:54;1.80;;;1.05;;
56171;SDS011;42052;41.634;-0.946;2023-03-01T14:22:43;1.75;;;1.20;;
56171;SDS011;42052;41.634;-0.946;2023-03-01T14:25:36;2.53;;;1.20;;
56171;SDS011;42052;41.634;-0.946;2023-03-01T14:28:25;2.72;;;1.25;;
56171;SDS011;42052;41.634;-0.946;2023-03-01T14:34:20;1.73;;;1.17;;
56171;SDS011;42052;41.634;-0.946;2023-03-01T14:37:09;2.25;;;1.20;;
56171;SDS011;42052;41.634;-0.946;2023-03-01T14:39:57;2.13;;;1.10;;
56171;SDS011;42052;41.634;-0.946;2023-03-01T14:42:44;4.53;;;1.30;;
56171;SDS011;42052;41.634;-0.946;2023-03-01T14:45:31;2.25;;;1.30;;
56171;SDS011;42052;41.634;-0.946;2023-03-01T14:48:17;2.10;;;1.00;;
56171;SDS011;42052;41.634;-0.946;2023-03-01T14:51:04;1.52;;;0.90;;
56171;SDS011;42052;41.634;-0.946;2023-03-01T14:53:51;3.28;;;1.05;;
56171;SDS011;42052;41.634;-0.946;2023-03-01T14:56:44;5.85;;;1.20;;
56171;SDS011;42052;41.634;-0.946;2023-03-01T14:59:33;2.58;;;1.10;;
56171;SDS011;42052;41.634;-0.946;2023-03-01T15:02:21;2.72;;;1.17;;
56171;SDS011;42052;41.634;-0.946;2023-03-01T15:05:09;2.08;;;0.85;;
56171;SDS011;42052;41.634;-0.946;2023-03-01T15:07:56;2.03;;;1.00;;
56171;SDS011;42052;41.634;-0.946;2023-03-01T15:10:54;2.97;;;1.20;;
56171;SDS011;42052;41.634;-0.946;2023-03-01T15:13:48;3.03;;;1.10;;
56171;SDS011;42052;41.634;-0.946;2023-03-01T15:16:35;3.05;;;1.20;;
56171;SDS011;42052;41.634;-0.946;2023-03-01T15:19:26;2.58;;;1.15;;
56171;SDS011;42052;41.634;-0.946;2023-03-01T15:22:17;0.98;;;0.73;;
56171;SDS011;42052;41.634;-0.946;2023-03-01T15:25:04;1.30;;;0.90;;
56171;SDS011;42052;41.634;-0.946;2023-03-01T15:27:51;1.98;;;1.05;;
56171;SDS011;42052;41.634;-0.946;2023-03-01T15:30:39;1.63;;;0.93;;
56171;SDS011;42052;41.634;-0.946;2023-03-01T15:36:32;1.20;;;0.90;;
56171;SDS011;42052;41.634;-0.946;2023-03-01T15:39:40;1.98;;;0.98;;
56171;SDS011;42052;41.634;-0.946;2023-03-01T15:48:03;1.50;;;1.02;;
56171;SDS011;42052;41.634;-0.946;2023-03-01T15:50:59;3.00;;;1.13;;
56171;SDS011;42052;41.634;-0.946;2023-03-01T15:53:48;1.15;;;0.93;;
56171;SDS011;42052;41.634;-0.946;2023-03-01T15:56:36;1.60;;;0.95;;
56171;SDS011;42052;41.634;-0.946;2023-03-01T15:59:22;1.63;;;1.10;;
56171;SDS011;42052;41.634;-0.946;2023-03-01T16:02:11;3.10;;;1.20;;
56171;SDS011;42052;41.634;-0.946;2023-03-01T16:05:00;1.13;;;0.98;;
56171;SDS011;42052;41.634;-0.946;2023-03-01T16:07:47;1.73;;;1.02;;
56171;SDS011;42052;41.634;-0.946;2023-03-01T16:10:33;1.75;;;0.90;;
56171;SDS011;42052;41.634;-0.946;2023-03-01T16:13:19;3.85;;;1.00;;
56171;SDS011;42052;41.634;-0.946;2023-03-01T16:16:05;2.03;;;1.00;;
56171;SDS011;42052;41.634;-0.946;2023-03-01T16:18:52;2.05;;;1.08;;
56171;SDS011;42052;41.634;-0.946;2023-03-01T16:21:40;1.63;;;0.80;;
56171;SDS011;42052;41.634;-0.946;2023-03-01T16:24:27;0.80;;;0.80;;
56171;SDS011;42052;41.634;-0.946;2023-03-01T16:27:13;1.90;;;1.20;;
56171;SDS011;42052;41.634;-0.946;2023-03-01T16:30:00;1.45;;;0.90;;
56171;SDS011;42052;41.634;-0.946;2023-03-01T16:32:47;1.73;;;0.85;;
56171;SDS011;42052;41.634;-0.946;2023-03-01T16:35:38;1.25;;;0.90;;
56171;SDS011;42052;41.634;-0.946;2023-03-01T16:38:25;1.05;;;0.75;;
56171;SDS011;42052;41.634;-0.946;2023-03-01T16:41:13;1.05;;;0.80;;
56171;SDS011;42052;41.634;-0.946;2023-03-01T16:44:01;2.60;;;0.90;;
56171;SDS011;42052;41.634;-0.946;2023-03-01T16:46:47;1.98;;;1.00;;
56171;SDS011;42052;41.634;-0.946;2023-03-01T16:49:34;1.85;;;1.00;;
56171;SDS011;42052;41.634;-0.946;2023-03-01T16:52:20;2.80;;;0.93;;
56171;SDS011;42052;41.634;-0.946;2023-03-01T16:55:07;2.10;;;1.30;;
56171;SDS011;42052;41.634;-0.946;2023-03-01T16:57:55;1.60;;;1.00;;
56171;SDS011;42052;41.634;-0.946;2023-03-01T17:00:42;1.55;;;1.00;;
56171;SDS011;42052;41.634;-0.946;2023-03-01T17:03:28;1.90;;;0.90;;
56171;SDS011;42052;41.634;-0.946;2023-03-01T17:06:16;2.95;;;0.98;;
56171;SDS011;42052;41.634;-0.946;2023-03-01T17:09:05;1.20;;;0.88;;
56171;SDS011;42052;41.634;-0.946;2023-03-01T17:11:51;2.17;;;1.10;;
56171;SDS011;42052;41.634;-0.946;2023-03-01T17:14:37;1.80;;;1.10;;
56171;SDS011;42052;41.634;-0.946;2023-03-01T17:17:26;2.00;;;1.00;;
56171;SDS011;42052;41.634;-0.946;2023-03-01T17:20:13;2.65;;;0.98;;
56171;SDS011;42052;41.634;-0.946;2023-03-01T17:22:59;2.15;;;1.10;;
56171;SDS011;42052;41.634;-0.946;2023-03-01T17:25:45;2.13;;;0.90;;
56171;SDS011;42052;41.634;-0.946;2023-03-01T17:28:32;1.77;;;1.05;;
56171;SDS011;42052;41.634;-0.946;2023-03-01T17:31:19;3.22;;;1.20;;
56171;SDS011;42052;41.634;-0.946;2023-03-01T17:34:05;2.70;;;0.90;;
56171;SDS011;42052;41.634;-0.946;2023-03-01T17:36:52;2.05;;;1.10;;
56171;SDS011;42052;41.634;-0.946;2023-03-01T17:39:39;1.73;;;0.80;;
56171;SDS011;42052;41.634;-0.946;2023-03-01T17:42:25;1.35;;;1.00;;
56171;SDS011;42052;41.634;-0.946;2023-03-01T17:45:11;1.92;;;1.10;;
56171;SDS011;42052;41.634;-0.946;2023-03-01T17:47:57;1.80;;;0.90;;
56171;SDS011;42052;41.634;-0.946;2023-03-01T17:50:43;2.47;;;1.10;;
56171;SDS011;42052;41.634;-0.946;2023-03-01T17:53:30;1.58;;;1.08;;
56171;SDS011;42052;41.634;-0.946;2023-03-01T17:56:16;3.28;;;1.30;;
56171;SDS011;42052;41.634;-0.946;2023-03-01T17:59:02;1.40;;;0.77;;
56171;SDS011;42052;41.634;-0.946;2023-03-01T18:01:49;1.30;;;1.02;;
56171;SDS011;42052;41.634;-0.946;2023-03-01T18:04:35;1.80;;;1.00;;
56171;SDS011;42052;41.634;-0.946;2023-03-01T18:07:21;1.58;;;0.98;;
56171;SDS011;42052;41.634;-0.946;2023-03-01T18:10:07;1.70;;;1.10;;
56171;SDS011;42052;41.634;-0.946;2023-03-01T18:12:54;1.00;;;0.80;;
56171;SDS011;42052;41.634;-0.946;2023-03-01T18:15:41;1.35;;;1.10;;
56171;SDS011;42052;41.634;-0.946;2023-03-01T18:18:27;1.33;;;1.10;;
56171;SDS011;42052;41.634;-0.946;2023-03-01T18:21:13;1.52;;;1.10;;
56171;SDS011;42052;41.634;-0.946;2023-03-01T18:24:00;1.27;;;0.98;;
56171;SDS011;42052;41.634;-0.946;2023-03-01T18:26:46;1.95;;;1.02;;
56171;SDS011;42052;41.634;-0.946;2023-03-01T18:29:32;1.45;;;0.90;;
56171;SDS011;42052;41.634;-0.946;2023-03-01T18:32:18;1.70;;;1.02;;
56171;SDS011;42052;41.634;-0.946;2023-03-01T18:35:05;1.23;;;0.95;;
56171;SDS011;42052;41.634;-0.946;2023-03-01T18:37:51;1.30;;;1.00;;
56171;SDS011;42052;41.634;-0.946;2023-03-01T18:40:38;1.95;;;1.00;;
56171;SDS011;42052;41.634;-0.946;2023-03-01T18:43:25;1.55;;;1.10;;
56171;SDS011;42052;41.634;-0.946;2023-03-01T18:46:14;2.08;;;1.00;;
56171;SDS011;42052;41.634;-0.946;2023-03-01T18:49:00;1.00;;;0.90;;
56171;SDS011;42052;41.634;-0.946;2023-03-01T18:51:46;1.85;;;1.20;;
56171;SDS011;42052;41.634;-0.946;2023-03-01T18:54:34;1.77;;;1.00;;
56171;SDS011;42052;41.634;-0.946;2023-03-01T18:57:20;1.83;;;1.27;;
56171;SDS011;42052;41.634;-0.946;2023-03-01T19:00:06;1.92;;;1.10;;
56171;SDS011;42052;41.634;-0.946;2023-03-01T19:02:53;1.70;;;1.13;;
56171;SDS011;42052;41.634;-0.946;2023-03-01T19:05:39;1.40;;;1.10;;